Archival Weather

Yakutsk

Yakutsk, Russia (UEEE)

Report from: Monday, February 6, 2023 7:00 PM JST
Current time: Monday, June 17, 2024 7:35 PM JST

Current weather – Weather history – Daily summaries
Weather forecast

Present weatherFog
Temperature-41.0°C (-41.8°F)
Dew point-45.0°C (-49.0°F)
Winds Calm
Visibility1148.3 ft. (350 m)
Altimeter30.30 in.Hg (1026 mB)
Precip. events QF 9:40 PM
Relative humidity65 %
Density altitude-8,003 ft. (-2,439 m)
Remarks No significant changes expected in the next two hours
Flight conditions Low Instrument Meteorological Conditions
Raw dataUEEE 061000Z 00000MPS 0350 0300NE R23L/0900U FG NSC M41/M45 Q1026 R23L/490150 NOSIG RMK QFE760
An error has occurred. This application may no longer respond until reloaded. Reload 🗙